Time;durP1;ratioP1;P1;durP2;ratioP2;P2;SDS_P1;SDS_P2;PMS_P1;PMS_P2;Temp;Humidity;BMP_temperature;BMP_pressure;BME280_temperature;BME280_humidity;BME280_pressure;Samples;Min_cycle;Max_cycle;Signal;HPM_P1;HPM_P2
2022/05/27 04:03:34;;;;;;;3.00;1.40;;;15.50;99.90;;;;;;5858054;23;21032;-69
2022/05/27 04:06:00;;;;;;;1.23;0.97;;;15.60;99.90;;;;;;4976711;28;20471;-66
2022/05/27 04:08:26;;;;;;;1.13;1.13;;;15.60;99.90;;;;;;4977208;28;20539;-66
2022/05/27 04:10:51;;;;;;;1.23;1.17;;;15.70;99.90;;;;;;4976545;28;20180;-67
2022/05/27 04:13:17;;;;;;;1.50;1.40;;;15.70;99.90;;;;;;4976328;28;20197;-66
2022/05/27 04:15:42;;;;;;;1.10;1.10;;;15.70;99.90;;;;;;4977308;28;20566;-66
2022/05/27 04:18:08;;;;;;;0.87;0.87;;;15.70;99.90;;;;;;4972132;28;20275;-66
2022/05/27 04:20:34;;;;;;;1.13;1.00;;;15.70;99.90;;;;;;4971909;28;20279;-66
2022/05/27 04:22:59;;;;;;;1.90;1.80;;;15.70;99.90;;;;;;4976183;28;20312;-66
2022/05/27 04:25:25;;;;;;;1.50;1.40;;;15.80;99.90;;;;;;4976888;28;20714;-66
2022/05/27 04:27:51;;;;;;;2.63;1.67;;;15.80;99.90;;;;;;4959889;28;20181;-67
2022/05/27 04:30:17;;;;;;;2.00;1.90;;;15.80;99.90;;;;;;4957706;28;20185;-66
2022/05/27 04:32:43;;;;;;;1.30;1.27;;;15.90;99.90;;;;;;4956502;28;20452;-67
2022/05/27 04:35:09;;;;;;;1.87;1.77;;;15.90;99.90;;;;;;4957447;28;20789;-67
2022/05/27 04:37:35;;;;;;;1.30;1.20;;;15.90;99.90;;;;;;4956533;28;20264;-67
2022/05/27 04:40:02;;;;;;;1.20;1.20;;;16.00;99.90;;;;;;4957375;28;20436;-66
2022/05/27 04:42:28;;;;;;;2.03;1.83;;;16.00;99.90;;;;;;4956787;28;20428;-66
2022/05/27 04:44:54;;;;;;;4.87;1.90;;;16.10;99.90;;;;;;4956997;28;20411;-67
2022/05/27 04:47:20;;;;;;;1.00;1.00;;;16.10;99.90;;;;;;4956924;29;20503;-66
2022/05/27 04:49:51;;;;;;;1.67;1.57;;;16.20;99.90;;;;;;4960029;28;20416;-66
2022/05/27 04:52:18;;;;;;;1.40;1.30;;;16.20;99.90;;;;;;4955422;29;20648;-66
2022/05/27 04:54:45;;;;;;;1.70;1.60;;;16.20;99.90;;;;;;4956866;28;20440;-67
2022/05/27 04:57:22;;;;;;;1.60;1.50;;;16.30;99.90;;;;;;4957547;28;20443;-66
2022/05/27 04:59:49;;;;;;;1.97;1.67;;;16.40;99.90;;;;;;4976042;28;20421;-67
2022/05/27 05:02:18;;;;;;;1.50;1.40;;;16.40;99.90;;;;;;4974415;28;20977;-67
2022/05/27 05:04:43;;;;;;;1.93;1.80;;;16.50;99.90;;;;;;4962830;28;20516;-67
2022/05/27 05:07:10;;;;;;;3.93;1.70;;;16.60;99.90;;;;;;4971767;28;20846;-66
2022/05/27 05:09:37;;;;;;;2.50;1.80;;;16.70;99.90;;;;;;4975903;28;20408;-66
2022/05/27 05:12:04;;;;;;;1.63;1.53;;;16.80;99.90;;;;;;4975919;28;20892;-67
2022/05/27 05:14:30;;;;;;;1.57;1.47;;;16.80;99.90;;;;;;4975747;28;20804;-66
2022/05/27 05:16:56;;;;;;;1.93;1.40;;;16.80;99.90;;;;;;4961141;28;20425;-66
2022/05/27 05:19:21;;;;;;;1.20;1.20;;;16.90;99.90;;;;;;4967654;28;20186;-66
2022/05/27 05:21:47;;;;;;;2.30;2.10;;;16.90;99.90;;;;;;4974837;28;20655;-66
2022/05/27 05:24:13;;;;;;;1.60;1.50;;;16.90;99.90;;;;;;4955832;28;20589;-66
2022/05/27 05:26:39;;;;;;;1.47;1.37;;;16.90;99.90;;;;;;4954723;29;20644;-67
2022/05/27 05:29:06;;;;;;;1.10;1.10;;;16.80;99.90;;;;;;4956590;28;20578;-66
2022/05/27 05:31:32;;;;;;;5.17;1.37;;;16.80;99.90;;;;;;4956228;28;20469;-67
2022/05/27 05:33:59;;;;;;;1.47;1.30;;;16.80;99.90;;;;;;4966017;28;20442;-67
2022/05/27 05:36:26;;;;;;;2.43;2.10;;;16.80;99.90;;;;;;4975489;28;20827;-67
2022/05/27 05:38:52;;;;;;;2.57;2.37;;;16.80;99.90;;;;;;4974946;28;20492;-67
2022/05/27 05:41:55;;;;;;;1.57;1.47;;;16.80;99.90;;;;;;4975202;28;20908;-66
2022/05/27 05:44:20;;;;;;;1.60;1.50;;;16.80;99.90;;;;;;4950822;28;20461;-66
2022/05/27 05:46:48;;;;;;;1.47;1.47;;;16.80;99.90;;;;;;4955715;28;20452;-66
2022/05/27 05:49:13;;;;;;;2.53;2.33;;;16.80;99.90;;;;;;4968569;28;20633;-66
2022/05/27 05:51:39;;;;;;;1.70;1.60;;;16.90;99.90;;;;;;4975445;28;20395;-66
2022/05/27 05:54:05;;;;;;;1.80;1.23;;;16.90;99.90;;;;;;4974470;28;20739;-67
2022/05/27 05:56:31;;;;;;;1.50;1.40;;;16.80;99.90;;;;;;4974912;28;20655;-66
2022/05/27 05:58:57;;;;;;;1.50;1.40;;;16.80;99.90;;;;;;4973919;28;20658;-66
2022/05/27 06:01:23;;;;;;;1.47;1.37;;;16.90;99.90;;;;;;4971625;28;20462;-66
2022/05/27 06:03:48;;;;;;;1.60;1.50;;;16.90;99.90;;;;;;4959173;28;20465;-66
2022/05/27 06:06:14;;;;;;;1.30;1.20;;;16.90;99.90;;;;;;4955662;28;20212;-66
2022/05/27 06:08:40;;;;;;;1.47;1.47;;;17.00;99.90;;;;;;4955464;29;20237;-66
2022/05/27 06:11:07;;;;;;;2.03;1.83;;;16.90;99.90;;;;;;4956058;28;20816;-67
2022/05/27 06:13:33;;;;;;;3.57;2.67;;;16.80;99.90;;;;;;4955329;28;20570;-66
2022/05/27 06:15:58;;;;;;;2.57;2.37;;;16.80;99.90;;;;;;4955664;28;20417;-66
2022/05/27 06:18:24;;;;;;;1.27;1.17;;;16.80;99.90;;;;;;4967236;28;20201;-66
2022/05/27 06:20:50;;;;;;;1.63;1.50;;;16.80;99.90;;;;;;4974570;28;20244;-66
2022/05/27 06:23:16;;;;;;;1.10;1.10;;;16.70;99.90;;;;;;4974203;28;20223;-66
2022/05/27 06:25:42;;;;;;;1.50;1.40;;;16.70;99.90;;;;;;4958094;28;20453;-66
2022/05/27 06:36:21;;;;;;;1.30;1.23;;;16.80;99.90;;;;;;4974604;28;20484;-67
2022/05/27 06:38:47;;;;;;;1.40;1.30;;;16.70;99.90;;;;;;4972262;28;20495;-66
2022/05/27 06:41:13;;;;;;;2.30;1.80;;;16.70;99.90;;;;;;4955196;28;20426;-66
2022/05/27 06:43:39;;;;;;;1.43;1.40;;;16.80;99.90;;;;;;4954799;28;20209;-65
2022/05/27 06:46:05;;;;;;;2.23;2.13;;;16.70;99.90;;;;;;4955466;28;20456;-65
2022/05/27 06:48:30;;;;;;;1.50;1.37;;;16.70;99.90;;;;;;4953926;29;20173;-65
2022/05/27 06:50:56;;;;;;;1.60;1.50;;;16.80;99.90;;;;;;4966180;28;20272;-65
2022/05/27 06:53:22;;;;;;;1.43;1.33;;;16.70;99.90;;;;;;4970644;28;20565;-67
2022/05/27 06:55:49;;;;;;;1.97;1.87;;;16.80;99.90;;;;;;4974558;28;20491;-68
2022/05/27 06:58:15;;;;;;;2.13;2.03;;;16.70;99.90;;;;;;4974041;28;20173;-67
2022/05/27 07:00:41;;;;;;;2.47;1.97;;;16.70;99.90;;;;;;4973689;28;20421;-67
2022/05/27 07:03:07;;;;;;;2.60;2.37;;;16.70;99.90;;;;;;4974561;28;20466;-67
2022/05/27 07:05:33;;;;;;;2.43;2.23;;;16.70;99.90;;;;;;4974687;28;20826;-68
2022/05/27 07:08:01;;;;;;;1.83;1.33;;;16.70;99.90;;;;;;4970066;28;20425;-68
2022/05/27 07:10:27;;;;;;;1.80;1.70;;;16.70;99.90;;;;;;4977884;28;20511;-69
2022/05/27 07:12:59;;;;;;;2.00;1.90;;;16.70;99.90;;;;;;4977413;28;20512;-68
2022/05/27 07:15:25;;;;;;;2.23;1.53;;;16.70;99.90;;;;;;4969859;28;20178;-68
2022/05/27 07:17:51;;;;;;;1.87;1.73;;;16.80;99.90;;;;;;4965296;28;20430;-68
2022/05/27 07:20:17;;;;;;;1.43;1.33;;;16.90;99.90;;;;;;4974426;28;20499;-65
2022/05/27 07:22:43;;;;;;;1.60;1.50;;;17.00;99.90;;;;;;4977242;28;20278;-71
2022/05/27 07:25:12;;;;;;;2.17;1.50;;;17.00;99.90;;;;;;4958211;28;20470;-70
2022/05/27 07:27:40;;;;;;;6.87;1.90;;;17.10;99.90;;;;;;4958189;28;20496;-64
2022/05/27 07:30:06;;;;;;;2.03;1.83;;;17.20;99.90;;;;;;4962175;28;20423;-64
2022/05/27 07:32:34;;;;;;;5.33;2.77;;;17.20;99.90;;;;;;4976986;28;20421;-69
2022/05/27 07:34:59;;;;;;;5.33;2.13;;;17.30;99.90;;;;;;4977485;28;20873;-67
2022/05/27 07:37:25;;;;;;;1.50;1.40;;;17.30;99.90;;;;;;4977098;28;20515;-67
2022/05/27 07:39:50;;;;;;;2.57;1.50;;;17.30;99.90;;;;;;4976914;28;20688;-66
2022/05/27 07:42:16;;;;;;;2.03;1.80;;;17.40;99.90;;;;;;4976851;28;20186;-65
2022/05/27 07:44:41;;;;;;;1.60;1.50;;;17.40;99.90;;;;;;4973870;28;20198;-67
2022/05/27 07:47:07;;;;;;;2.30;2.00;;;17.40;99.90;;;;;;4957901;28;20293;-63
2022/05/27 07:49:33;;;;;;;1.20;1.20;;;17.40;99.90;;;;;;4958242;28;20210;-65
2022/05/27 07:51:59;;;;;;;2.87;1.63;;;17.40;99.90;;;;;;4957517;28;20195;-65
2022/05/27 07:54:25;;;;;;;1.63;1.53;;;17.40;99.90;;;;;;4971028;28;20217;-64
2022/05/27 07:56:51;;;;;;;2.00;1.80;;;17.40;99.90;;;;;;4957318;28;20497;-64
2022/05/27 07:59:16;;;;;;;1.73;1.63;;;17.40;99.90;;;;;;4970087;28;20182;-65
2022/05/27 08:01:42;;;;;;;1.93;1.83;;;17.40;99.90;;;;;;4976977;28;20234;-67
2022/05/27 08:04:08;;;;;;;2.77;2.00;;;17.40;99.90;;;;;;4975987;28;20210;-67
2022/05/27 08:06:33;;;;;;;1.60;1.50;;;17.30;99.90;;;;;;4975677;28;20202;-67
2022/05/27 08:08:59;;;;;;;1.60;1.50;;;17.40;99.90;;;;;;4976804;28;20271;-65
2022/05/27 08:11:25;;;;;;;1.43;1.43;;;17.40;99.90;;;;;;4975982;28;20226;-66
2022/05/27 08:13:51;;;;;;;4.77;1.40;;;17.50;99.90;;;;;;4960363;28;20196;-70
2022/05/27 08:16:17;;;;;;;2.00;1.57;;;17.70;99.90;;;;;;4976988;28;20201;-64
2022/05/27 08:18:43;;;;;;;2.50;1.53;;;17.80;99.90;;;;;;4960370;28;20436;-68
2022/05/27 08:21:11;;;;;;;2.00;1.47;;;18.00;99.90;;;;;;4960677;28;20184;-65
2022/05/27 08:23:37;;;;;;;2.40;1.57;;;18.10;99.90;;;;;;4975748;28;20197;-64
2022/05/27 08:26:04;;;;;;;2.07;1.97;;;18.20;99.90;;;;;;4976451;28;20467;-64
2022/05/27 08:28:30;;;;;;;1.47;1.37;;;18.30;99.90;;;;;;4970349;28;20188;-64
2022/05/27 08:30:56;;;;;;;2.30;1.50;;;18.50;99.90;;;;;;4975746;28;20428;-63
2022/05/27 08:38:00;;;;;;;1.53;1.43;;;18.70;99.90;;;;;;4975885;28;20469;-66
2022/05/27 08:39:01;;;;;;;1.23;1.20;;;18.70;99.90;;;;;;4956629;29;20420;-65
2022/05/27 08:41:43;;;;;;;4.33;2.67;;;18.60;99.90;;;;;;4956596;28;20395;-63
2022/05/27 08:44:23;;;;;;;3.00;1.80;;;18.60;99.90;;;;;;4955933;28;20584;-64
2022/05/27 08:47:12;;;;;;;1.70;1.60;;;18.40;99.90;;;;;;4972271;28;20452;-64
2022/05/27 08:49:44;;;;;;;1.80;1.70;;;18.30;99.90;;;;;;4961668;28;20424;-63
2022/05/27 08:52:46;;;;;;;3.40;1.63;;;18.20;99.90;;;;;;4975175;28;20422;-65
2022/05/27 09:01:20;;;;;;;1.50;1.40;;;18.00;99.90;;;;;;4956299;28;20528;-64
2022/05/27 09:04:02;;;;;;;2.10;1.43;;;18.00;99.90;;;;;;4955703;28;20432;-65
2022/05/27 09:06:36;;;;;;;1.83;1.73;;;18.00;99.90;;;;;;4956964;28;20940;-66
2022/05/27 09:09:05;;;;;;;1.70;1.60;;;18.00;99.90;;;;;;4956632;28;20428;-65
2022/05/27 09:12:00;;;;;;;1.37;1.37;;;18.10;99.90;;;;;;4964464;28;20428;-67
2022/05/27 09:14:33;;;;;;;2.83;1.70;;;18.30;99.90;;;;;;4955807;28;20400;-69
2022/05/27 09:17:05;;;;;;;1.20;1.20;;;18.40;99.90;;;;;;4954641;28;20403;-74
2022/05/27 09:19:46;;;;;;;1.17;1.17;;;18.80;99.90;;;;;;4961564;28;20428;-70
2022/05/27 09:22:39;;;;;;;1.23;1.23;;;19.80;99.90;;;;;;4962464;28;20432;-68
2022/05/27 09:25:31;;;;;;;2.23;2.13;;;21.50;99.90;;;;;;4956044;28;20794;-68
2022/05/27 09:28:17;;;;;;;2.70;2.50;;;22.70;97.10;;;;;;4956397;28;20397;-67
2022/05/27 09:30:45;;;;;;;1.27;1.27;;;24.00;95.70;;;;;;4974451;28;20768;-71
2022/05/27 09:33:13;;;;;;;2.00;1.77;;;25.20;94.30;;;;;;4974684;28;20395;-67
2022/05/27 09:36:01;;;;;;;1.50;1.40;;;26.20;92.00;;;;;;4958789;28;20725;-67
2022/05/27 09:38:30;;;;;;;1.63;1.43;;;27.10;88.70;;;;;;4956630;28;20762;-66
2022/05/27 09:41:04;;;;;;;6.10;1.50;;;27.90;85.80;;;;;;4956132;28;20397;-66
2022/05/27 09:43:43;;;;;;;1.70;1.57;;;28.60;84.40;;;;;;4955850;28;20416;-66
2022/05/27 09:46:34;;;;;;;1.50;1.40;;;29.10;81.60;;;;;;4956134;28;20434;-67
2022/05/27 09:49:00;;;;;;;2.00;1.83;;;29.40;79.80;;;;;;4960370;28;20422;-67
2022/05/27 09:51:29;;;;;;;1.63;1.53;;;29.50;77.50;;;;;;4975367;28;20764;-65
2022/05/27 09:54:04;;;;;;;1.63;1.53;;;29.10;75.50;;;;;;4973387;28;20211;-65
2022/05/27 09:56:43;;;;;;;1.30;1.20;;;29.00;74.80;;;;;;4974833;28;20390;-65
2022/05/27 09:59:21;;;;;;;1.70;1.60;;;28.80;74.40;;;;;;4955659;28;20482;-65
2022/05/27 10:01:47;;;;;;;1.50;1.40;;;28.30;75.10;;;;;;4955793;28;20390;-63
2022/05/27 10:04:15;;;;;;;1.57;1.47;;;27.70;76.50;;;;;;4963883;28;20504;-67
2022/05/27 10:06:41;;;;;;;1.50;1.50;;;27.30;76.30;;;;;;4974233;28;20203;-66
2022/05/27 10:09:28;;;;;;;4.43;2.03;;;27.10;76.60;;;;;;4974719;28;20394;-67
2022/05/27 10:11:56;;;;;;;1.57;1.30;;;26.90;79.20;;;;;;4973848;28;21018;-64
2022/05/27 10:14:28;;;;;;;1.27;1.23;;;26.90;79.50;;;;;;4974346;28;20432;-64
2022/05/27 10:17:09;;;;;;;1.67;1.57;;;27.10;77.90;;;;;;4971239;28;20405;-64
2022/05/27 10:19:36;;;;;;;1.33;1.23;;;27.50;76.60;;;;;;4959148;28;20471;-63
2022/05/27 10:22:05;;;;;;;3.00;1.67;;;28.00;74.50;;;;;;4974738;28;20391;-65
2022/05/27 10:24:38;;;;;;;1.70;1.60;;;28.60;73.80;;;;;;4973665;28;20949;-67
2022/05/27 10:27:07;;;;;;;2.13;2.03;;;28.90;73.80;;;;;;4974089;28;20488;-67
2022/05/27 10:29:47;;;;;;;1.53;1.50;;;29.30;73.30;;;;;;4973764;28;20823;-66
2022/05/27 10:32:45;;;;;;;1.93;1.60;;;29.70;71.10;;;;;;4972151;28;20920;-66
2022/05/27 10:35:25;;;;;;;1.30;1.30;;;30.30;68.70;;;;;;4960447;28;20456;-67
2022/05/27 10:38:00;;;;;;;1.60;1.50;;;30.40;68.80;;;;;;4960123;28;20438;-66
2022/05/27 10:40:42;;;;;;;1.60;1.50;;;30.00;66.60;;;;;;4966246;28;20470;-68
2022/05/27 10:43:40;;;;;;;1.47;1.37;;;29.20;67.20;;;;;;4956949;28;20439;-67
2022/05/27 10:46:09;;;;;;;1.80;1.70;;;28.60;69.10;;;;;;4973703;28;20452;-65
2022/05/27 10:48:35;;;;;;;1.80;1.70;;;27.90;70.70;;;;;;4972788;28;20424;-67
2022/05/27 10:51:16;;;;;;;2.10;2.00;;;27.50;71.90;;;;;;4974561;28;20397;-67
2022/05/27 10:54:15;;;;;;;1.60;1.50;;;27.10;73.80;;;;;;4973909;28;20226;-65
2022/05/27 11:03:18;;;;;;;1.53;1.43;;;25.70;76.20;;;;;;4954713;28;20416;-64
2022/05/27 11:05:53;;;;;;;3.03;1.50;;;25.10;79.60;;;;;;4959839;28;20443;-67
2022/05/27 11:08:30;;;;;;;1.50;1.40;;;24.80;79.80;;;;;;4974244;28;20458;-67
2022/05/27 11:11:41;;;;;;;1.33;1.23;;;24.60;79.40;;;;;;4974269;28;20433;-66
2022/05/27 11:17:12;;;;;;;1.20;1.20;;;23.60;80.20;;;;;;4955435;29;20416;-63
2022/05/27 11:19:43;;;;;;;1.45;1.10;;;23.40;80.60;;;;;;4953894;29;20421;-67
2022/05/27 11:22:37;;;;;;;4.00;1.60;;;23.30;81.70;;;;;;4954202;29;20298;-65
2022/05/27 11:25:39;;;;;;;1.20;1.10;;;23.10;81.90;;;;;;4954337;28;20516;-63
2022/05/27 11:28:14;;;;;;;1.77;1.67;;;22.90;83.10;;;;;;4953365;29;20924;-65
2022/05/27 11:30:59;;;;;;;1.10;1.10;;;22.90;82.60;;;;;;4961168;28;20416;-66
2022/05/27 11:33:48;;;;;;;1.83;1.40;;;22.80;83.70;;;;;;4954684;28;20420;-68
2022/05/27 11:36:35;;;;;;;1.80;1.70;;;22.80;86.50;;;;;;4954845;28;20912;-66
2022/05/27 11:39:37;;;;;;;1.40;1.33;;;22.60;85.80;;;;;;4954644;29;20726;-66
2022/05/27 11:42:35;;;;;;;1.70;1.60;;;22.70;87.70;;;;;;4954814;28;20375;-65
2022/05/27 11:45:21;;;;;;;1.80;1.53;;;22.90;86.90;;;;;;4955508;28;20955;-64
2022/05/27 11:47:50;;;;;;;1.47;1.37;;;23.00;87.60;;;;;;4957616;28;20426;-64
2022/05/27 11:50:39;;;;;;;1.40;1.40;;;23.00;87.40;;;;;;4958428;28;20443;-64
2022/05/27 11:53:32;;;;;;;1.47;1.30;;;22.90;88.30;;;;;;4958101;28;20375;-64
2022/05/27 11:56:36;;;;;;;1.43;1.43;;;22.80;88.40;;;;;;4958194;28;20475;-65
2022/05/27 11:59:16;;;;;;;1.27;1.20;;;22.80;85.80;;;;;;4964138;28;20434;-64
2022/05/27 12:01:50;;;;;;;1.73;1.40;;;22.80;86.10;;;;;;4977489;28;20423;-64
2022/05/27 12:04:42;;;;;;;1.40;1.33;;;22.70;85.20;;;;;;4976643;28;20937;-64
2022/05/27 12:07:23;;;;;;;2.20;1.80;;;22.80;85.70;;;;;;4977179;28;20517;-64
2022/05/27 12:10:00;;;;;;;1.10;1.10;;;22.80;86.20;;;;;;4977256;28;20806;-63
2022/05/27 12:12:32;;;;;;;1.80;1.50;;;22.90;86.30;;;;;;4976960;28;20429;-64
2022/05/27 12:15:16;;;;;;;1.40;1.37;;;22.90;86.50;;;;;;4960592;28;20500;-63
2022/05/27 12:17:48;;;;;;;2.80;1.60;;;22.90;86.60;;;;;;4957836;28;20409;-64
2022/05/27 12:20:32;;;;;;;1.60;1.50;;;23.00;86.90;;;;;;4957699;29;20479;-64
2022/05/27 12:23:03;;;;;;;1.50;1.40;;;23.10;85.80;;;;;;4957226;28;20409;-62
2022/05/27 12:25:34;;;;;;;1.40;1.37;;;23.10;84.90;;;;;;4957718;28;20762;-64
2022/05/27 12:28:02;;;;;;;2.20;1.33;;;22.90;84.90;;;;;;4959537;28;20447;-62
2022/05/27 12:30:37;;;;;;;1.53;1.40;;;22.80;85.90;;;;;;4976809;28;20396;-64
2022/05/27 12:33:03;;;;;;;1.43;1.33;;;22.90;87.10;;;;;;4976373;28;20744;-63
2022/05/27 12:35:32;;;;;;;1.60;1.50;;;22.90;87.30;;;;;;4976894;28;20455;-64
2022/05/27 12:38:10;;;;;;;1.37;1.37;;;22.90;87.30;;;;;;4977087;28;20479;-64
2022/05/27 12:40:47;;;;;;;2.00;1.37;;;22.90;86.60;;;;;;4976754;28;20379;-64
2022/05/27 12:43:21;;;;;;;1.03;1.03;;;23.10;86.10;;;;;;4969999;28;20403;-63
2022/05/27 12:45:54;;;;;;;2.40;1.27;;;23.10;85.90;;;;;;4957270;29;20400;-65
2022/05/27 12:48:36;;;;;;;0.90;0.90;;;23.10;86.50;;;;;;4957010;28;20422;-63
2022/05/27 12:51:31;;;;;;;0.90;0.90;;;23.10;86.50;;;;;;4958250;28;20514;-64
2022/05/27 12:53:58;;;;;;;1.23;1.23;;;23.10;87.10;;;;;;4956627;28;20971;-64
2022/05/27 13:02:33;;;;;;;2.30;1.20;;;23.20;86.00;;;;;;4957193;29;20431;-65
2022/05/27 13:05:02;;;;;;;2.10;1.40;;;23.30;85.40;;;;;;4959826;28;20455;-63
2022/05/27 13:07:27;;;;;;;3.03;1.40;;;23.20;86.20;;;;;;4976193;28;20827;-64
2022/05/27 13:09:55;;;;;;;2.20;1.67;;;23.10;86.40;;;;;;4976251;28;20430;-64
2022/05/27 13:12:42;;;;;;;1.70;1.60;;;23.10;87.40;;;;;;4975775;28;20168;-66
2022/05/27 13:15:14;;;;;;;1.67;1.40;;;23.10;87.70;;;;;;4975852;28;20537;-64
2022/05/27 13:17:50;;;;;;;1.17;1.17;;;23.10;87.50;;;;;;4975809;28;20374;-65
2022/05/27 13:20:25;;;;;;;1.60;1.50;;;23.20;88.90;;;;;;4961614;28;20417;-64
2022/05/27 13:23:02;;;;;;;1.83;1.40;;;23.20;87.80;;;;;;4955958;28;20961;-66
2022/05/27 13:25:34;;;;;;;1.63;1.53;;;23.20;87.90;;;;;;4956649;28;20408;-64
2022/05/27 13:28:03;;;;;;;1.40;1.40;;;23.10;88.60;;;;;;4956957;29;20421;-64
2022/05/27 13:30:50;;;;;;;1.83;1.70;;;23.10;89.80;;;;;;4956287;28;20434;-65
2022/05/27 13:33:23;;;;;;;1.50;1.40;;;23.10;90.00;;;;;;4955955;28;20416;-64
2022/05/27 13:35:50;;;;;;;1.70;1.60;;;23.30;88.30;;;;;;4975572;28;20386;-64
2022/05/27 13:38:23;;;;;;;1.40;1.40;;;23.20;88.30;;;;;;4975384;28;20471;-65
2022/05/27 13:40:49;;;;;;;3.23;1.80;;;23.20;88.10;;;;;;4975400;28;20481;-64
2022/05/27 13:43:17;;;;;;;1.23;1.23;;;23.10;88.30;;;;;;4974646;28;20923;-63
2022/05/27 13:46:06;;;;;;;1.83;1.40;;;23.10;88.20;;;;;;4975202;28;20426;-66
2022/05/27 13:48:36;;;;;;;1.27;1.27;;;23.00;88.60;;;;;;4970555;28;20424;-64
2022/05/27 13:51:10;;;;;;;1.03;1.03;;;22.80;88.70;;;;;;4955811;28;20394;-63
2022/05/27 13:53:36;;;;;;;1.20;1.20;;;22.80;88.40;;;;;;4955528;28;20495;-64
2022/05/27 13:56:37;;;;;;;2.83;1.07;;;22.70;88.30;;;;;;4956035;28;20408;-64
2022/05/27 13:59:12;;;;;;;0.90;0.90;;;22.70;89.30;;;;;;4956007;29;20458;-64
2022/05/27 14:01:44;;;;;;;3.20;1.33;;;22.80;89.20;;;;;;4955768;29;20427;-65
2022/05/27 14:04:26;;;;;;;0.70;0.70;;;22.80;89.60;;;;;;4966689;28;20509;-63
2022/05/27 14:06:52;;;;;;;0.90;0.90;;;22.60;89.20;;;;;;4974949;28;20531;-65
2022/05/27 14:09:30;;;;;;;1.03;1.03;;;22.60;88.80;;;;;;4974532;28;20383;-65
2022/05/27 14:12:05;;;;;;;0.80;0.80;;;22.60;90.20;;;;;;4972252;28;20402;-64
2022/05/27 14:14:37;;;;;;;1.10;1.10;;;22.50;89.70;;;;;;4957271;28;20468;-65
2022/05/27 14:17:03;;;;;;;1.40;1.30;;;22.50;90.80;;;;;;4955819;28;20903;-66
2022/05/27 14:19:29;;;;;;;0.97;0.97;;;22.60;91.30;;;;;;4970854;28;20434;-65
2022/05/27 14:22:40;;;;;;;1.00;1.00;;;22.50;90.50;;;;;;4974743;28;20911;-64
2022/05/27 14:25:18;;;;;;;1.10;1.10;;;22.40;89.90;;;;;;4956521;28;20532;-64
2022/05/27 14:27:55;;;;;;;0.70;0.70;;;22.10;90.30;;;;;;4955758;28;20524;-65
2022/05/27 14:30:49;;;;;;;0.90;0.80;;;22.00;90.00;;;;;;4967407;28;20437;-64
2022/05/27 14:33:26;;;;;;;1.10;0.90;;;21.80;90.60;;;;;;4957983;28;20448;-64
2022/05/27 14:35:52;;;;;;;0.80;0.80;;;21.70;91.20;;;;;;4963707;28;20375;-65
2022/05/27 14:38:23;;;;;;;0.77;0.77;;;21.70;90.80;;;;;;4970570;28;20424;-65
2022/05/27 14:40:51;;;;;;;0.87;0.87;;;21.60;91.50;;;;;;4974992;28;20913;-64
2022/05/27 14:43:44;;;;;;;1.10;1.00;;;21.70;91.20;;;;;;4975159;28;20424;-65
2022/05/27 14:46:24;;;;;;;1.13;1.13;;;21.70;91.20;;;;;;4955991;29;20463;-65
2022/05/27 14:48:55;;;;;;;1.03;1.03;;;21.70;91.70;;;;;;4954486;28;20402;-65
2022/05/27 14:51:34;;;;;;;0.90;0.90;;;21.60;91.20;;;;;;4955537;28;20507;-65
2022/05/27 14:54:22;;;;;;;0.80;0.80;;;21.50;92.10;;;;;;4955169;28;20851;-66
2022/05/27 14:56:49;;;;;;;1.73;1.03;;;21.40;91.90;;;;;;4955538;28;21040;-64
2022/05/27 14:59:20;;;;;;;0.50;0.50;;;21.30;92.10;;;;;;4960523;28;20426;-65
2022/05/27 15:01:53;;;;;;;1.20;1.10;;;21.30;92.30;;;;;;4955104;28;20435;-64
2022/05/27 15:04:31;;;;;;;0.70;0.70;;;21.30;92.40;;;;;;4968957;28;20434;-65
2022/05/27 15:07:17;;;;;;;1.17;0.90;;;21.40;92.70;;;;;;4972601;28;20463;-65
2022/05/27 15:09:43;;;;;;;1.10;1.00;;;21.30;92.00;;;;;;4957614;28;20456;-63
2022/05/27 15:12:17;;;;;;;0.90;0.90;;;21.30;92.10;;;;;;4955241;29;20794;-64
2022/05/27 15:14:45;;;;;;;1.47;0.90;;;21.20;92.90;;;;;;4954732;28;20450;-65
2022/05/27 15:17:37;;;;;;;1.43;1.00;;;21.10;92.80;;;;;;4955273;28;20425;-64
2022/05/27 15:20:05;;;;;;;2.07;0.90;;;21.00;93.10;;;;;;4953753;29;20427;-64
2022/05/27 15:22:42;;;;;;;1.07;1.00;;;20.90;93.10;;;;;;4957615;28;20417;-66
2022/05/27 15:25:14;;;;;;;0.90;0.90;;;20.70;93.50;;;;;;4958483;28;20418;-66
2022/05/27 15:33:06;;;;;;;1.10;1.10;;;20.50;93.90;;;;;;4961574;28;20501;-64
2022/05/27 15:33:48;;;;;;;1.53;1.43;;;20.50;94.00;;;;;;4976683;28;20447;-65
2022/05/27 15:36:15;;;;;;;0.80;0.80;;;20.50;93.90;;;;;;4964010;28;21079;-66
2022/05/27 15:38:45;;;;;;;1.00;1.00;;;20.60;94.00;;;;;;4958263;28;20421;-65
2022/05/27 15:41:11;;;;;;;2.60;1.87;;;20.60;94.60;;;;;;4966257;28;20511;-64
2022/05/27 15:43:41;;;;;;;0.70;0.70;;;20.60;94.40;;;;;;4957755;28;20548;-66
2022/05/27 15:46:10;;;;;;;1.20;1.10;;;20.60;93.80;;;;;;4958062;28;20829;-64
2022/05/27 15:48:36;;;;;;;0.80;0.80;;;20.50;93.70;;;;;;4957909;28;20379;-65
2022/05/27 15:51:02;;;;;;;1.00;1.00;;;20.30;93.70;;;;;;4967549;28;20718;-66
2022/05/27 15:53:28;;;;;;;0.80;0.80;;;20.30;94.10;;;;;;4957205;28;20432;-65
2022/05/27 15:55:54;;;;;;;0.63;0.63;;;20.20;94.30;;;;;;4957800;28;20400;-65
2022/05/27 15:58:20;;;;;;;0.73;0.73;;;20.10;94.40;;;;;;4957613;28;20843;-65
2022/05/27 16:00:47;;;;;;;0.97;0.93;;;20.20;94.60;;;;;;4963181;28;20774;-65
2022/05/27 16:03:14;;;;;;;0.90;0.90;;;20.20;94.40;;;;;;4976539;28;20425;-65
2022/05/27 16:05:41;;;;;;;1.40;1.30;;;20.30;94.30;;;;;;4963451;28;20440;-65
2022/05/27 16:08:10;;;;;;;2.20;0.80;;;20.30;94.10;;;;;;4966408;28;20427;-63
2022/05/27 16:10:36;;;;;;;0.90;0.90;;;20.30;93.50;;;;;;4976882;28;20820;-65
2022/05/27 16:13:03;;;;;;;1.33;1.17;;;20.40;93.60;;;;;;4976554;28;20397;-64
2022/05/27 16:15:28;;;;;;;1.00;1.00;;;20.40;93.20;;;;;;4977007;28;20757;-65
2022/05/27 16:17:55;;;;;;;0.70;0.70;;;20.20;92.90;;;;;;4976212;28;20438;-65
2022/05/27 16:20:34;;;;;;;0.90;0.90;;;20.10;93.20;;;;;;4961843;28;20231;-65
2022/05/27 16:23:01;;;;;;;1.27;0.77;;;20.00;93.50;;;;;;4957116;28;20427;-64
2022/05/27 16:25:29;;;;;;;0.90;0.90;;;19.90;93.70;;;;;;4957554;28;20757;-64
2022/05/27 16:27:57;;;;;;;1.23;1.10;;;19.80;93.70;;;;;;4957248;28;20467;-64
2022/05/27 16:30:26;;;;;;;0.90;0.90;;;19.70;93.40;;;;;;4957418;28;20483;-65
2022/05/27 16:32:53;;;;;;;1.20;1.10;;;19.60;93.80;;;;;;4955967;28;20387;-64
2022/05/27 16:35:20;;;;;;;0.67;0.67;;;19.50;93.90;;;;;;4962678;28;20523;-65
2022/05/27 16:37:46;;;;;;;0.90;0.50;;;19.40;94.30;;;;;;4976689;28;20423;-64
2022/05/27 16:40:13;;;;;;;1.13;1.00;;;19.40;94.30;;;;;;4976389;28;20501;-67
2022/05/27 16:42:40;;;;;;;0.50;0.50;;;19.30;94.40;;;;;;4975464;28;20727;-64
2022/05/27 16:45:10;;;;;;;1.00;0.90;;;19.30;94.30;;;;;;4965447;28;20451;-64
2022/05/27 16:47:36;;;;;;;1.23;1.10;;;19.10;94.50;;;;;;4957140;28;20464;-66
2022/05/27 16:50:02;;;;;;;0.50;0.50;;;19.00;95.00;;;;;;4962243;28;20513;-65
2022/05/27 16:52:27;;;;;;;0.70;0.70;;;18.90;95.00;;;;;;4975806;28;20449;-66
2022/05/27 16:54:53;;;;;;;0.60;0.60;;;18.80;95.30;;;;;;4968954;28;20197;-65
2022/05/27 16:57:19;;;;;;;1.30;1.20;;;18.70;94.90;;;;;;4956867;28;20589;-64
2022/05/27 16:59:44;;;;;;;1.00;0.90;;;18.60;95.10;;;;;;4957047;28;20175;-64
2022/05/27 17:02:10;;;;;;;0.60;0.60;;;18.60;95.10;;;;;;4972891;28;20547;-65
2022/05/27 17:04:37;;;;;;;0.80;0.80;;;18.60;95.40;;;;;;4975355;28;20211;-64
2022/05/27 17:07:03;;;;;;;1.53;0.97;;;18.70;95.60;;;;;;4976102;28;20439;-64
2022/05/27 17:09:29;;;;;;;0.83;0.83;;;18.70;95.80;;;;;;4976346;28;20879;-62
2022/05/27 17:11:55;;;;;;;0.87;0.83;;;18.80;95.50;;;;;;4975373;28;20490;-65
2022/05/27 17:14:20;;;;;;;0.80;0.80;;;18.80;95.40;;;;;;4975496;28;20246;-65
2022/05/27 17:16:46;;;;;;;0.80;0.73;;;18.80;95.20;;;;;;4976036;28;20184;-65
2022/05/27 17:19:12;;;;;;;1.47;1.37;;;18.80;95.40;;;;;;4972726;28;20209;-64
2022/05/27 17:21:39;;;;;;;1.60;1.50;;;18.80;95.40;;;;;;4956506;28;20183;-65
2022/05/27 17:24:05;;;;;;;0.73;0.73;;;18.80;95.40;;;;;;4956054;28;20429;-65
2022/05/27 17:26:32;;;;;;;2.23;1.03;;;18.70;95.50;;;;;;4969940;28;20459;-64
2022/05/27 17:28:59;;;;;;;1.57;1.17;;;18.70;95.70;;;;;;4975648;28;20416;-65
2022/05/27 17:31:24;;;;;;;0.80;0.80;;;18.70;95.70;;;;;;4975707;28;20496;-64
2022/05/27 17:33:50;;;;;;;0.90;0.90;;;18.60;95.90;;;;;;4972221;28;21033;-66
2022/05/27 17:36:15;;;;;;;0.97;0.97;;;18.60;96.00;;;;;;4956427;29;20640;-63
2022/05/27 17:38:42;;;;;;;0.93;0.93;;;18.50;96.00;;;;;;4956377;28;20691;-65
2022/05/27 17:41:09;;;;;;;0.90;0.90;;;18.50;96.10;;;;;;4955029;29;20308;-64
2022/05/27 17:43:37;;;;;;;1.27;0.80;;;18.40;96.10;;;;;;4955653;28;20444;-64
2022/05/27 17:46:04;;;;;;;0.70;0.70;;;18.30;96.10;;;;;;4956219;28;20557;-63
2022/05/27 17:51:20;;;;;;;1.30;1.20;;;18.30;96.30;;;;;;4975679;28;20758;-64
2022/05/27 17:53:51;;;;;;;1.10;1.10;;;18.20;96.50;;;;;;4974398;28;20453;-65